sensor_id;sensor_type;location;lat;lon;timestamp;P1;durP1;ratioP1;P2;durP2;ratioP2
35290;SDS011;21411;50.024;19.220;2023-09-19T00:00:24;21.30;;;19.40;;
35290;SDS011;21411;50.024;19.220;2023-09-19T00:03:13;21.30;;;19.40;;
35290;SDS011;21411;50.024;19.220;2023-09-19T00:05:41;20.60;;;18.60;;
35290;SDS011;21411;50.024;19.220;2023-09-19T00:08:10;22.20;;;20.10;;
35290;SDS011;21411;50.024;19.220;2023-09-19T00:10:37;20.40;;;18.50;;
35290;SDS011;21411;50.024;19.220;2023-09-19T00:13:05;19.60;;;17.70;;
35290;SDS011;21411;50.024;19.220;2023-09-19T00:15:40;21.70;;;19.20;;
35290;SDS011;21411;50.024;19.220;2023-09-19T00:18:08;20.90;;;18.90;;
35290;SDS011;21411;50.024;19.220;2023-09-19T00:20:35;22.10;;;18.60;;
35290;SDS011;21411;50.024;19.220;2023-09-19T00:23:03;21.40;;;18.40;;
35290;SDS011;21411;50.024;19.220;2023-09-19T00:25:30;20.60;;;18.70;;
35290;SDS011;21411;50.024;19.220;2023-09-19T00:27:58;19.70;;;17.90;;
35290;SDS011;21411;50.024;19.220;2023-09-19T00:30:24;20.60;;;18.70;;
35290;SDS011;21411;50.024;19.220;2023-09-19T00:32:51;21.00;;;18.50;;
35290;SDS011;21411;50.024;19.220;2023-09-19T00:35:21;20.40;;;18.30;;
35290;SDS011;21411;50.024;19.220;2023-09-19T00:37:51;20.20;;;18.30;;
35290;SDS011;21411;50.024;19.220;2023-09-19T00:40:18;19.90;;;18.10;;
35290;SDS011;21411;50.024;19.220;2023-09-19T00:42:46;19.40;;;17.50;;
35290;SDS011;21411;50.024;19.220;2023-09-19T00:45:16;19.80;;;17.90;;
35290;SDS011;21411;50.024;19.220;2023-09-19T00:50:12;20.80;;;18.80;;
35290;SDS011;21411;50.024;19.220;2023-09-19T00:52:42;21.70;;;19.50;;
35290;SDS011;21411;50.024;19.220;2023-09-19T00:55:09;19.40;;;17.70;;
35290;SDS011;21411;50.024;19.220;2023-09-19T00:57:37;19.70;;;17.90;;
35290;SDS011;21411;50.024;19.220;2023-09-19T01:00:05;18.70;;;17.00;;
35290;SDS011;21411;50.024;19.220;2023-09-19T01:02:34;19.50;;;17.50;;
35290;SDS011;21411;50.024;19.220;2023-09-19T01:05:01;19.90;;;18.00;;
35290;SDS011;21411;50.024;19.220;2023-09-19T01:07:30;19.30;;;17.60;;
35290;SDS011;21411;50.024;19.220;2023-09-19T01:09:58;18.50;;;16.80;;
35290;SDS011;21411;50.024;19.220;2023-09-19T01:15:22;20.10;;;18.20;;
35290;SDS011;21411;50.024;19.220;2023-09-19T01:20:35;20.40;;;18.40;;
35290;SDS011;21411;50.024;19.220;2023-09-19T01:31:02;20.20;;;18.20;;
35290;SDS011;21411;50.024;19.220;2023-09-19T01:36:31;19.50;;;17.70;;
35290;SDS011;21411;50.024;19.220;2023-09-19T01:39:05;18.40;;;16.70;;
35290;SDS011;21411;50.024;19.220;2023-09-19T01:41:43;20.40;;;18.50;;
35290;SDS011;21411;50.024;19.220;2023-09-19T01:44:22;20.30;;;18.30;;
35290;SDS011;21411;50.024;19.220;2023-09-19T01:46:56;18.80;;;17.20;;
35290;SDS011;21411;50.024;19.220;2023-09-19T01:49:42;20.20;;;18.30;;
35290;SDS011;21411;50.024;19.220;2023-09-19T01:52:15;20.40;;;18.40;;
35290;SDS011;21411;50.024;19.220;2023-09-19T01:54:46;19.90;;;18.00;;
35290;SDS011;21411;50.024;19.220;2023-09-19T01:57:22;20.30;;;18.40;;
35290;SDS011;21411;50.024;19.220;2023-09-19T02:02:58;19.00;;;17.10;;
35290;SDS011;21411;50.024;19.220;2023-09-19T02:05:26;19.70;;;17.70;;
35290;SDS011;21411;50.024;19.220;2023-09-19T02:07:54;19.40;;;17.60;;
35290;SDS011;21411;50.024;19.220;2023-09-19T02:10:22;20.00;;;18.00;;
35290;SDS011;21411;50.024;19.220;2023-09-19T02:12:49;18.60;;;17.00;;
35290;SDS011;21411;50.024;19.220;2023-09-19T02:15:17;19.30;;;17.50;;
35290;SDS011;21411;50.024;19.220;2023-09-19T02:17:43;17.80;;;16.20;;
35290;SDS011;21411;50.024;19.220;2023-09-19T02:20:10;19.40;;;17.80;;
35290;SDS011;21411;50.024;19.220;2023-09-19T02:22:41;18.60;;;16.70;;
35290;SDS011;21411;50.024;19.220;2023-09-19T02:25:08;19.10;;;17.20;;
35290;SDS011;21411;50.024;19.220;2023-09-19T02:27:34;18.60;;;16.80;;
35290;SDS011;21411;50.024;19.220;2023-09-19T02:30:02;18.20;;;16.60;;
35290;SDS011;21411;50.024;19.220;2023-09-19T02:32:29;19.00;;;17.20;;
35290;SDS011;21411;50.024;19.220;2023-09-19T02:34:57;18.60;;;16.70;;
35290;SDS011;21411;50.024;19.220;2023-09-19T02:37:27;18.30;;;16.60;;
35290;SDS011;21411;50.024;19.220;2023-09-19T02:39:53;19.10;;;17.20;;
35290;SDS011;21411;50.024;19.220;2023-09-19T02:42:20;18.30;;;16.70;;
35290;SDS011;21411;50.024;19.220;2023-09-19T02:44:47;18.70;;;16.80;;
35290;SDS011;21411;50.024;19.220;2023-09-19T02:47:14;18.50;;;16.80;;
35290;SDS011;21411;50.024;19.220;2023-09-19T02:49:41;19.00;;;17.20;;
35290;SDS011;21411;50.024;19.220;2023-09-19T02:52:08;18.30;;;16.60;;
35290;SDS011;21411;50.024;19.220;2023-09-19T02:54:37;20.10;;;18.10;;
35290;SDS011;21411;50.024;19.220;2023-09-19T02:57:04;19.90;;;18.30;;
35290;SDS011;21411;50.024;19.220;2023-09-19T02:59:32;20.30;;;18.50;;
35290;SDS011;21411;50.024;19.220;2023-09-19T03:01:59;22.30;;;19.40;;
35290;SDS011;21411;50.024;19.220;2023-09-19T03:04:26;21.30;;;19.30;;
35290;SDS011;21411;50.024;19.220;2023-09-19T03:06:53;21.30;;;19.20;;
35290;SDS011;21411;50.024;19.220;2023-09-19T03:09:24;19.80;;;18.00;;
35290;SDS011;21411;50.024;19.220;2023-09-19T03:11:51;21.10;;;19.00;;
35290;SDS011;21411;50.024;19.220;2023-09-19T03:14:18;21.70;;;19.70;;
35290;SDS011;21411;50.024;19.220;2023-09-19T03:16:46;21.40;;;19.20;;
35290;SDS011;21411;50.024;19.220;2023-09-19T03:19:12;21.50;;;19.50;;
35290;SDS011;21411;50.024;19.220;2023-09-19T03:21:41;22.70;;;20.60;;
35290;SDS011;21411;50.024;19.220;2023-09-19T03:24:07;24.40;;;22.00;;
35290;SDS011;21411;50.024;19.220;2023-09-19T03:26:34;23.50;;;21.10;;
35290;SDS011;21411;50.024;19.220;2023-09-19T03:29:05;25.50;;;23.20;;
35290;SDS011;21411;50.024;19.220;2023-09-19T03:31:36;26.50;;;24.10;;
35290;SDS011;21411;50.024;19.220;2023-09-19T03:34:03;26.20;;;23.60;;
35290;SDS011;21411;50.024;19.220;2023-09-19T03:36:30;26.40;;;23.70;;
35290;SDS011;21411;50.024;19.220;2023-09-19T03:38:57;28.00;;;25.30;;
35290;SDS011;21411;50.024;19.220;2023-09-19T03:41:23;28.10;;;25.50;;
35290;SDS011;21411;50.024;19.220;2023-09-19T03:43:50;30.10;;;27.20;;
35290;SDS011;21411;50.024;19.220;2023-09-19T03:46:16;28.90;;;26.00;;
35290;SDS011;21411;50.024;19.220;2023-09-19T03:48:43;29.60;;;26.80;;
35290;SDS011;21411;50.024;19.220;2023-09-19T03:51:09;30.20;;;27.50;;
35290;SDS011;21411;50.024;19.220;2023-09-19T03:53:37;29.20;;;26.50;;
35290;SDS011;21411;50.024;19.220;2023-09-19T03:56:03;31.30;;;28.30;;
35290;SDS011;21411;50.024;19.220;2023-09-19T03:58:30;32.00;;;28.90;;
35290;SDS011;21411;50.024;19.220;2023-09-19T04:00:57;32.50;;;29.20;;
35290;SDS011;21411;50.024;19.220;2023-09-19T04:03:24;30.70;;;27.70;;
35290;SDS011;21411;50.024;19.220;2023-09-19T04:06:00;31.40;;;27.10;;
35290;SDS011;21411;50.024;19.220;2023-09-19T04:08:28;31.10;;;27.90;;
35290;SDS011;21411;50.024;19.220;2023-09-19T04:10:55;31.90;;;28.90;;
35290;SDS011;21411;50.024;19.220;2023-09-19T04:13:23;35.50;;;32.00;;
35290;SDS011;21411;50.024;19.220;2023-09-19T04:15:50;34.20;;;30.90;;
35290;SDS011;21411;50.024;19.220;2023-09-19T04:18:16;35.70;;;32.40;;
35290;SDS011;21411;50.024;19.220;2023-09-19T04:20:49;36.80;;;33.30;;
35290;SDS011;21411;50.024;19.220;2023-09-19T04:23:16;36.30;;;32.70;;
35290;SDS011;21411;50.024;19.220;2023-09-19T04:25:43;35.10;;;31.50;;
35290;SDS011;21411;50.024;19.220;2023-09-19T04:28:10;35.80;;;32.20;;
35290;SDS011;21411;50.024;19.220;2023-09-19T04:30:37;35.40;;;31.90;;
35290;SDS011;21411;50.024;19.220;2023-09-19T04:33:06;35.60;;;32.40;;
35290;SDS011;21411;50.024;19.220;2023-09-19T04:35:33;33.70;;;30.50;;
35290;SDS011;21411;50.024;19.220;2023-09-19T04:38:01;34.60;;;31.30;;
35290;SDS011;21411;50.024;19.220;2023-09-19T04:40:29;33.80;;;30.40;;
35290;SDS011;21411;50.024;19.220;2023-09-19T04:42:56;34.10;;;30.80;;
35290;SDS011;21411;50.024;19.220;2023-09-19T04:45:23;34.10;;;30.80;;
35290;SDS011;21411;50.024;19.220;2023-09-19T04:47:50;34.40;;;31.20;;
35290;SDS011;21411;50.024;19.220;2023-09-19T04:50:17;33.40;;;30.00;;
35290;SDS011;21411;50.024;19.220;2023-09-19T04:52:44;31.20;;;28.00;;
35290;SDS011;21411;50.024;19.220;2023-09-19T04:55:11;30.00;;;26.90;;
35290;SDS011;21411;50.024;19.220;2023-09-19T04:57:47;30.30;;;27.50;;
35290;SDS011;21411;50.024;19.220;2023-09-19T05:00:16;32.40;;;29.20;;
35290;SDS011;21411;50.024;19.220;2023-09-19T05:02:45;31.40;;;28.40;;
35290;SDS011;21411;50.024;19.220;2023-09-19T05:05:15;33.20;;;30.00;;
35290;SDS011;21411;50.024;19.220;2023-09-19T05:07:43;33.10;;;29.90;;
35290;SDS011;21411;50.024;19.220;2023-09-19T05:10:10;33.40;;;30.00;;
35290;SDS011;21411;50.024;19.220;2023-09-19T05:12:38;32.70;;;29.80;;
35290;SDS011;21411;50.024;19.220;2023-09-19T05:15:05;33.00;;;29.90;;
35290;SDS011;21411;50.024;19.220;2023-09-19T05:17:35;34.60;;;31.40;;
35290;SDS011;21411;50.024;19.220;2023-09-19T05:20:02;33.90;;;30.60;;
35290;SDS011;21411;50.024;19.220;2023-09-19T05:22:38;32.90;;;29.70;;
35290;SDS011;21411;50.024;19.220;2023-09-19T05:25:07;32.50;;;29.20;;
35290;SDS011;21411;50.024;19.220;2023-09-19T05:27:34;32.20;;;29.00;;
35290;SDS011;21411;50.024;19.220;2023-09-19T05:30:00;33.00;;;29.90;;
35290;SDS011;21411;50.024;19.220;2023-09-19T05:32:27;33.90;;;30.70;;
35290;SDS011;21411;50.024;19.220;2023-09-19T05:34:53;33.80;;;30.40;;
35290;SDS011;21411;50.024;19.220;2023-09-19T05:37:22;32.50;;;29.50;;
35290;SDS011;21411;50.024;19.220;2023-09-19T05:39:49;34.40;;;30.90;;
35290;SDS011;21411;50.024;19.220;2023-09-19T05:42:16;32.10;;;29.10;;
35290;SDS011;21411;50.024;19.220;2023-09-19T05:44:43;32.80;;;29.60;;
35290;SDS011;21411;50.024;19.220;2023-09-19T05:47:09;31.00;;;27.90;;
35290;SDS011;21411;50.024;19.220;2023-09-19T05:49:36;30.60;;;27.60;;
35290;SDS011;21411;50.024;19.220;2023-09-19T05:52:05;29.40;;;26.80;;
35290;SDS011;21411;50.024;19.220;2023-09-19T05:54:32;31.50;;;28.20;;
35290;SDS011;21411;50.024;19.220;2023-09-19T05:57:00;30.20;;;27.40;;
35290;SDS011;21411;50.024;19.220;2023-09-19T05:59:27;30.20;;;27.40;;
35290;SDS011;21411;50.024;19.220;2023-09-19T06:01:54;29.40;;;26.70;;
35290;SDS011;21411;50.024;19.220;2023-09-19T06:04:21;29.10;;;26.50;;
35290;SDS011;21411;50.024;19.220;2023-09-19T06:06:48;27.40;;;24.70;;
35290;SDS011;21411;50.024;19.220;2023-09-19T06:09:15;32.40;;;29.20;;
35290;SDS011;21411;50.024;19.220;2023-09-19T06:11:41;32.60;;;29.50;;
35290;SDS011;21411;50.024;19.220;2023-09-19T06:14:08;31.90;;;29.00;;
35290;SDS011;21411;50.024;19.220;2023-09-19T06:16:36;35.60;;;32.20;;
35290;SDS011;21411;50.024;19.220;2023-09-19T06:19:04;35.50;;;31.90;;
35290;SDS011;21411;50.024;19.220;2023-09-19T06:21:35;33.50;;;30.60;;
35290;SDS011;21411;50.024;19.220;2023-09-19T06:24:02;35.40;;;32.10;;
35290;SDS011;21411;50.024;19.220;2023-09-19T06:26:29;36.10;;;32.70;;
35290;SDS011;21411;50.024;19.220;2023-09-19T06:28:57;34.00;;;30.70;;
35290;SDS011;21411;50.024;19.220;2023-09-19T06:31:25;34.70;;;31.20;;
35290;SDS011;21411;50.024;19.220;2023-09-19T06:33:52;30.60;;;27.70;;
35290;SDS011;21411;50.024;19.220;2023-09-19T06:36:19;28.90;;;26.20;;
35290;SDS011;21411;50.024;19.220;2023-09-19T06:38:46;27.00;;;24.50;;
35290;SDS011;21411;50.024;19.220;2023-09-19T06:41:13;26.70;;;24.00;;
35290;SDS011;21411;50.024;19.220;2023-09-19T06:43:42;25.10;;;22.60;;
35290;SDS011;21411;50.024;19.220;2023-09-19T06:46:08;26.00;;;23.30;;
35290;SDS011;21411;50.024;19.220;2023-09-19T06:48:35;23.40;;;21.10;;
35290;SDS011;21411;50.024;19.220;2023-09-19T06:51:02;23.20;;;20.60;;
35290;SDS011;21411;50.024;19.220;2023-09-19T06:53:31;22.90;;;20.90;;
35290;SDS011;21411;50.024;19.220;2023-09-19T06:56:01;23.10;;;20.60;;
35290;SDS011;21411;50.024;19.220;2023-09-19T06:58:28;23.50;;;21.30;;
35290;SDS011;21411;50.024;19.220;2023-09-19T07:00:55;24.10;;;21.70;;
35290;SDS011;21411;50.024;19.220;2023-09-19T07:03:22;23.80;;;21.40;;
35290;SDS011;21411;50.024;19.220;2023-09-19T07:05:52;21.30;;;18.80;;
35290;SDS011;21411;50.024;19.220;2023-09-19T07:08:19;20.20;;;16.40;;
35290;SDS011;21411;50.024;19.220;2023-09-19T07:10:46;14.70;;;13.10;;
35290;SDS011;21411;50.024;19.220;2023-09-19T07:13:15;15.60;;;14.00;;
35290;SDS011;21411;50.024;19.220;2023-09-19T07:15:45;15.50;;;14.00;;
35290;SDS011;21411;50.024;19.220;2023-09-19T07:18:16;18.30;;;16.60;;
35290;SDS011;21411;50.024;19.220;2023-09-19T07:20:44;17.20;;;15.50;;
35290;SDS011;21411;50.024;19.220;2023-09-19T07:23:21;14.20;;;12.80;;
35290;SDS011;21411;50.024;19.220;2023-09-19T07:25:52;11.80;;;10.70;;
35290;SDS011;21411;50.024;19.220;2023-09-19T07:28:23;12.20;;;11.00;;
35290;SDS011;21411;50.024;19.220;2023-09-19T07:30:49;11.20;;;9.40;;
35290;SDS011;21411;50.024;19.220;2023-09-19T07:33:16;10.40;;;9.30;;
35290;SDS011;21411;50.024;19.220;2023-09-19T07:35:45;9.10;;;8.10;;
35290;SDS011;21411;50.024;19.220;2023-09-19T07:38:12;8.70;;;7.90;;
35290;SDS011;21411;50.024;19.220;2023-09-19T07:40:39;9.60;;;7.20;;
35290;SDS011;21411;50.024;19.220;2023-09-19T07:43:06;7.10;;;6.40;;
35290;SDS011;21411;50.024;19.220;2023-09-19T07:45:32;7.40;;;6.70;;
35290;SDS011;21411;50.024;19.220;2023-09-19T07:48:00;7.10;;;6.40;;
35290;SDS011;21411;50.024;19.220;2023-09-19T07:50:30;9.50;;;6.80;;
35290;SDS011;21411;50.024;19.220;2023-09-19T07:52:57;7.20;;;6.50;;
35290;SDS011;21411;50.024;19.220;2023-09-19T07:55:25;10.00;;;7.30;;
35290;SDS011;21411;50.024;19.220;2023-09-19T07:57:52;13.30;;;11.30;;
35290;SDS011;21411;50.024;19.220;2023-09-19T08:00:19;17.20;;;14.50;;
35290;SDS011;21411;50.024;19.220;2023-09-19T08:02:45;14.60;;;12.40;;
35290;SDS011;21411;50.024;19.220;2023-09-19T08:05:13;16.40;;;13.00;;
35290;SDS011;21411;50.024;19.220;2023-09-19T08:07:45;14.00;;;12.60;;
35290;SDS011;21411;50.024;19.220;2023-09-19T08:10:15;11.50;;;9.40;;
35290;SDS011;21411;50.024;19.220;2023-09-19T08:12:46;14.00;;;9.20;;
35290;SDS011;21411;50.024;19.220;2023-09-19T08:17:40;9.10;;;8.10;;
35290;SDS011;21411;50.024;19.220;2023-09-19T08:20:07;9.20;;;6.60;;
35290;SDS011;21411;50.024;19.220;2023-09-19T08:22:52;9.50;;;7.20;;
35290;SDS011;21411;50.024;19.220;2023-09-19T08:25:21;9.50;;;8.50;;
35290;SDS011;21411;50.024;19.220;2023-09-19T08:27:49;9.60;;;8.30;;
35290;SDS011;21411;50.024;19.220;2023-09-19T08:30:16;12.20;;;8.90;;
35290;SDS011;21411;50.024;19.220;2023-09-19T08:32:50;9.20;;;8.30;;
35290;SDS011;21411;50.024;19.220;2023-09-19T08:35:16;13.40;;;10.90;;
35290;SDS011;21411;50.024;19.220;2023-09-19T08:37:43;14.70;;;11.70;;
35290;SDS011;21411;50.024;19.220;2023-09-19T08:40:13;17.60;;;12.10;;
35290;SDS011;21411;50.024;19.220;2023-09-19T08:42:53;17.00;;;13.10;;
35290;SDS011;21411;50.024;19.220;2023-09-19T08:45:21;14.70;;;13.20;;
35290;SDS011;21411;50.024;19.220;2023-09-19T08:50:25;12.10;;;10.90;;
35290;SDS011;21411;50.024;19.220;2023-09-19T08:53:00;11.80;;;9.50;;
35290;SDS011;21411;50.024;19.220;2023-09-19T08:55:28;7.60;;;6.70;;
35290;SDS011;21411;50.024;19.220;2023-09-19T08:57:59;7.30;;;6.60;;
35290;SDS011;21411;50.024;19.220;2023-09-19T09:00:36;6.70;;;5.50;;
35290;SDS011;21411;50.024;19.220;2023-09-19T09:03:03;7.50;;;6.20;;
35290;SDS011;21411;50.024;19.220;2023-09-19T09:05:33;8.40;;;6.10;;
35290;SDS011;21411;50.024;19.220;2023-09-19T09:08:02;10.40;;;6.50;;
35290;SDS011;21411;50.024;19.220;2023-09-19T09:10:32;6.40;;;5.90;;
35290;SDS011;21411;50.024;19.220;2023-09-19T09:12:59;7.20;;;5.70;;
35290;SDS011;21411;50.024;19.220;2023-09-19T09:15:26;9.60;;;6.40;;
35290;SDS011;21411;50.024;19.220;2023-09-19T09:17:55;5.90;;;5.30;;
35290;SDS011;21411;50.024;19.220;2023-09-19T09:20:23;5.60;;;5.10;;
35290;SDS011;21411;50.024;19.220;2023-09-19T09:22:50;8.70;;;4.90;;
35290;SDS011;21411;50.024;19.220;2023-09-19T09:25:21;6.70;;;5.20;;
35290;SDS011;21411;50.024;19.220;2023-09-19T09:28:01;5.70;;;4.70;;
35290;SDS011;21411;50.024;19.220;2023-09-19T09:30:35;5.40;;;4.70;;
35290;SDS011;21411;50.024;19.220;2023-09-19T09:33:10;6.10;;;4.90;;
35290;SDS011;21411;50.024;19.220;2023-09-19T09:35:46;6.40;;;5.00;;
35290;SDS011;21411;50.024;19.220;2023-09-19T09:38:19;5.50;;;5.00;;
35290;SDS011;21411;50.024;19.220;2023-09-19T09:40:50;5.70;;;4.80;;
35290;SDS011;21411;50.024;19.220;2023-09-19T09:43:31;5.90;;;5.10;;
35290;SDS011;21411;50.024;19.220;2023-09-19T09:46:21;5.00;;;4.50;;
35290;SDS011;21411;50.024;19.220;2023-09-19T09:48:48;5.70;;;4.90;;
35290;SDS011;21411;50.024;19.220;2023-09-19T09:51:40;5.50;;;4.80;;
35290;SDS011;21411;50.024;19.220;2023-09-19T09:54:09;7.60;;;5.10;;
35290;SDS011;21411;50.024;19.220;2023-09-19T09:57:02;8.90;;;4.90;;
35290;SDS011;21411;50.024;19.220;2023-09-19T10:05:13;6.00;;;4.90;;
35290;SDS011;21411;50.024;19.220;2023-09-19T10:08:10;7.50;;;5.40;;
35290;SDS011;21411;50.024;19.220;2023-09-19T10:10:39;5.60;;;5.10;;
35290;SDS011;21411;50.024;19.220;2023-09-19T10:13:10;6.40;;;5.80;;
35290;SDS011;21411;50.024;19.220;2023-09-19T10:18:10;8.50;;;6.50;;
35290;SDS011;21411;50.024;19.220;2023-09-19T10:20:37;6.50;;;5.90;;
35290;SDS011;21411;50.024;19.220;2023-09-19T10:23:08;7.10;;;5.90;;
35290;SDS011;21411;50.024;19.220;2023-09-19T10:25:43;7.20;;;6.50;;
35290;SDS011;21411;50.024;19.220;2023-09-19T10:28:14;6.30;;;5.80;;
35290;SDS011;21411;50.024;19.220;2023-09-19T10:30:42;8.30;;;6.60;;
35290;SDS011;21411;50.024;19.220;2023-09-19T10:33:11;6.90;;;5.80;;
35290;SDS011;21411;50.024;19.220;2023-09-19T10:35:40;7.00;;;6.30;;
35290;SDS011;21411;50.024;19.220;2023-09-19T10:38:09;7.70;;;6.40;;
35290;SDS011;21411;50.024;19.220;2023-09-19T10:40:37;6.70;;;6.10;;
35290;SDS011;21411;50.024;19.220;2023-09-19T10:43:11;9.40;;;6.30;;
35290;SDS011;21411;50.024;19.220;2023-09-19T10:45:44;8.80;;;7.20;;
35290;SDS011;21411;50.024;19.220;2023-09-19T10:48:20;7.40;;;6.70;;
35290;SDS011;21411;50.024;19.220;2023-09-19T10:53:27;7.90;;;7.10;;
35290;SDS011;21411;50.024;19.220;2023-09-19T10:55:59;10.40;;;6.30;;
35290;SDS011;21411;50.024;19.220;2023-09-19T10:58:30;8.20;;;6.90;;
35290;SDS011;21411;50.024;19.220;2023-09-19T11:01:05;7.60;;;6.40;;
35290;SDS011;21411;50.024;19.220;2023-09-19T11:03:33;8.10;;;6.50;;
35290;SDS011;21411;50.024;19.220;2023-09-19T11:06:08;7.20;;;6.60;;
35290;SDS011;21411;50.024;19.220;2023-09-19T11:08:59;6.70;;;6.20;;
35290;SDS011;21411;50.024;19.220;2023-09-19T11:14:15;6.20;;;5.50;;
35290;SDS011;21411;50.024;19.220;2023-09-19T11:17:23;7.80;;;6.60;;
35290;SDS011;21411;50.024;19.220;2023-09-19T11:30:36;8.40;;;7.10;;
35290;SDS011;21411;50.024;19.220;2023-09-19T11:33:17;6.90;;;6.40;;
35290;SDS011;21411;50.024;19.220;2023-09-19T11:35:58;8.10;;;6.60;;
35290;SDS011;21411;50.024;19.220;2023-09-19T11:43:52;7.40;;;6.60;;
35290;SDS011;21411;50.024;19.220;2023-09-19T11:46:21;7.70;;;6.70;;
35290;SDS011;21411;50.024;19.220;2023-09-19T11:48:48;8.00;;;6.60;;
35290;SDS011;21411;50.024;19.220;2023-09-19T11:51:19;7.60;;;6.20;;
35290;SDS011;21411;50.024;19.220;2023-09-19T11:53:53;6.60;;;6.00;;
35290;SDS011;21411;50.024;19.220;2023-09-19T11:56:22;6.20;;;5.70;;
35290;SDS011;21411;50.024;19.220;2023-09-19T11:58:52;6.70;;;6.10;;
35290;SDS011;21411;50.024;19.220;2023-09-19T12:01:24;7.70;;;7.00;;
35290;SDS011;21411;50.024;19.220;2023-09-19T12:03:56;6.70;;;6.00;;
35290;SDS011;21411;50.024;19.220;2023-09-19T12:06:24;6.20;;;5.60;;
35290;SDS011;21411;50.024;19.220;2023-09-19T12:08:52;6.70;;;5.40;;
35290;SDS011;21411;50.024;19.220;2023-09-19T12:11:23;6.30;;;5.80;;
35290;SDS011;21411;50.024;19.220;2023-09-19T12:13:51;7.00;;;6.40;;
35290;SDS011;21411;50.024;19.220;2023-09-19T12:16:19;7.20;;;5.80;;
35290;SDS011;21411;50.024;19.220;2023-09-19T12:18:50;6.50;;;5.90;;
35290;SDS011;21411;50.024;19.220;2023-09-19T12:21:24;6.90;;;6.30;;
35290;SDS011;21411;50.024;19.220;2023-09-19T12:26:46;7.20;;;6.20;;
35290;SDS011;21411;50.024;19.220;2023-09-19T12:29:21;6.00;;;5.50;;
35290;SDS011;21411;50.024;19.220;2023-09-19T12:31:51;6.40;;;5.70;;
35290;SDS011;21411;50.024;19.220;2023-09-19T12:34:26;6.10;;;5.50;;
35290;SDS011;21411;50.024;19.220;2023-09-19T12:39:54;6.30;;;5.70;;
35290;SDS011;21411;50.024;19.220;2023-09-19T12:42:41;6.60;;;6.00;;
35290;SDS011;21411;50.024;19.220;2023-09-19T12:45:08;6.40;;;5.80;;
35290;SDS011;21411;50.024;19.220;2023-09-19T12:47:35;7.70;;;5.70;;
35290;SDS011;21411;50.024;19.220;2023-09-19T12:52:48;5.90;;;5.40;;
35290;SDS011;21411;50.024;19.220;2023-09-19T12:55:28;5.90;;;5.10;;
35290;SDS011;21411;50.024;19.220;2023-09-19T12:58:07;5.80;;;5.10;;
35290;SDS011;21411;50.024;19.220;2023-09-19T13:00:39;7.50;;;5.60;;
35290;SDS011;21411;50.024;19.220;2023-09-19T13:06:00;6.30;;;5.00;;
35290;SDS011;21411;50.024;19.220;2023-09-19T13:08:39;5.40;;;4.90;;
35290;SDS011;21411;50.024;19.220;2023-09-19T13:11:11;7.30;;;5.40;;
35290;SDS011;21411;50.024;19.220;2023-09-19T13:18:47;5.50;;;4.80;;
35290;SDS011;21411;50.024;19.220;2023-09-19T13:21:32;7.90;;;4.60;;
35290;SDS011;21411;50.024;19.220;2023-09-19T13:26:49;4.20;;;3.80;;
35290;SDS011;21411;50.024;19.220;2023-09-19T13:29:15;5.10;;;3.40;;
35290;SDS011;21411;50.024;19.220;2023-09-19T13:31:45;4.80;;;3.00;;
35290;SDS011;21411;50.024;19.220;2023-09-19T13:34:13;3.60;;;3.10;;
35290;SDS011;21411;50.024;19.220;2023-09-19T13:36:41;4.40;;;3.40;;
35290;SDS011;21411;50.024;19.220;2023-09-19T13:39:08;3.40;;;2.60;;
35290;SDS011;21411;50.024;19.220;2023-09-19T13:41:35;4.20;;;2.60;;
35290;SDS011;21411;50.024;19.220;2023-09-19T13:46:31;4.80;;;3.00;;
35290;SDS011;21411;50.024;19.220;2023-09-19T13:49:01;4.60;;;3.10;;
35290;SDS011;21411;50.024;19.220;2023-09-19T13:51:32;3.90;;;2.90;;
35290;SDS011;21411;50.024;19.220;2023-09-19T13:53:59;4.20;;;3.00;;
35290;SDS011;21411;50.024;19.220;2023-09-19T13:56:25;3.10;;;2.50;;
35290;SDS011;21411;50.024;19.220;2023-09-19T13:58:57;4.70;;;3.30;;
35290;SDS011;21411;50.024;19.220;2023-09-19T14:01:23;5.30;;;3.20;;
35290;SDS011;21411;50.024;19.220;2023-09-19T14:03:51;4.40;;;2.80;;
35290;SDS011;21411;50.024;19.220;2023-09-19T14:06:20;3.80;;;2.70;;
35290;SDS011;21411;50.024;19.220;2023-09-19T14:08:46;3.50;;;3.20;;
35290;SDS011;21411;50.024;19.220;2023-09-19T14:11:14;5.00;;;3.80;;
35290;SDS011;21411;50.024;19.220;2023-09-19T14:13:42;5.50;;;2.90;;
35290;SDS011;21411;50.024;19.220;2023-09-19T14:16:15;5.20;;;3.90;;
35290;SDS011;21411;50.024;19.220;2023-09-19T14:18:44;4.30;;;3.90;;
35290;SDS011;21411;50.024;19.220;2023-09-19T14:21:12;5.20;;;4.70;;
35290;SDS011;21411;50.024;19.220;2023-09-19T14:23:40;3.90;;;3.50;;
35290;SDS011;21411;50.024;19.220;2023-09-19T14:26:11;6.80;;;4.00;;
35290;SDS011;21411;50.024;19.220;2023-09-19T14:28:37;5.40;;;4.80;;
35290;SDS011;21411;50.024;19.220;2023-09-19T14:31:08;6.10;;;5.30;;
35290;SDS011;21411;50.024;19.220;2023-09-19T14:33:36;7.60;;;6.80;;
35290;SDS011;21411;50.024;19.220;2023-09-19T14:36:04;6.30;;;5.70;;
35290;SDS011;21411;50.024;19.220;2023-09-19T14:38:33;6.20;;;5.50;;
35290;SDS011;21411;50.024;19.220;2023-09-19T14:41:01;8.00;;;5.10;;
35290;SDS011;21411;50.024;19.220;2023-09-19T14:43:29;5.70;;;4.80;;
35290;SDS011;21411;50.024;19.220;2023-09-19T14:45:56;5.10;;;4.60;;
35290;SDS011;21411;50.024;19.220;2023-09-19T14:48:25;4.50;;;4.10;;
35290;SDS011;21411;50.024;19.220;2023-09-19T14:50:52;6.70;;;4.00;;
35290;SDS011;21411;50.024;19.220;2023-09-19T14:53:19;5.20;;;3.60;;
35290;SDS011;21411;50.024;19.220;2023-09-19T14:55:46;3.90;;;3.50;;
35290;SDS011;21411;50.024;19.220;2023-09-19T14:58:14;4.40;;;3.80;;
35290;SDS011;21411;50.024;19.220;2023-09-19T15:00:40;4.80;;;4.10;;
35290;SDS011;21411;50.024;19.220;2023-09-19T15:03:07;3.60;;;3.00;;
35290;SDS011;21411;50.024;19.220;2023-09-19T15:05:33;4.10;;;3.80;;
35290;SDS011;21411;50.024;19.220;2023-09-19T15:08:00;3.80;;;3.00;;
35290;SDS011;21411;50.024;19.220;2023-09-19T15:10:28;4.10;;;2.90;;
35290;SDS011;21411;50.024;19.220;2023-09-19T15:12:56;5.70;;;3.30;;
35290;SDS011;21411;50.024;19.220;2023-09-19T15:15:22;3.50;;;3.00;;
35290;SDS011;21411;50.024;19.220;2023-09-19T15:17:49;2.80;;;2.60;;
35290;SDS011;21411;50.024;19.220;2023-09-19T15:20:15;2.50;;;2.30;;
35290;SDS011;21411;50.024;19.220;2023-09-19T15:22:43;3.10;;;2.70;;
35290;SDS011;21411;50.024;19.220;2023-09-19T15:25:10;3.30;;;2.80;;
35290;SDS011;21411;50.024;19.220;2023-09-19T15:27:36;4.90;;;3.60;;
35290;SDS011;21411;50.024;19.220;2023-09-19T15:30:03;3.00;;;2.70;;
35290;SDS011;21411;50.024;19.220;2023-09-19T15:32:31;3.10;;;2.60;;
35290;SDS011;21411;50.024;19.220;2023-09-19T15:34:58;3.10;;;2.80;;
35290;SDS011;21411;50.024;19.220;2023-09-19T15:37:25;2.70;;;2.40;;
35290;SDS011;21411;50.024;19.220;2023-09-19T15:39:52;5.10;;;2.70;;
35290;SDS011;21411;50.024;19.220;2023-09-19T15:42:19;2.70;;;2.50;;
35290;SDS011;21411;50.024;19.220;2023-09-19T15:44:45;3.20;;;2.40;;
35290;SDS011;21411;50.024;19.220;2023-09-19T15:47:14;3.60;;;2.50;;
35290;SDS011;21411;50.024;19.220;2023-09-19T15:49:41;2.60;;;2.30;;
35290;SDS011;21411;50.024;19.220;2023-09-19T15:52:07;2.50;;;2.30;;